createdAt,value
2023-12-03T00:00:06.990Z,7.25
2023-12-03T00:02:34.859Z,6.95
2023-12-03T00:05:04.339Z,7.70
2023-12-03T00:07:33.135Z,7.55
2023-12-03T00:10:00.129Z,7.85
2023-12-03T00:12:27.021Z,7.40
2023-12-03T00:14:53.951Z,7.25
2023-12-03T00:17:20.751Z,8.18
2023-12-03T00:19:47.659Z,7.90
2023-12-03T00:22:15.181Z,7.55
2023-12-03T00:24:42.436Z,6.63
2023-12-03T00:27:09.154Z,6.97
2023-12-03T00:29:35.748Z,7.00
2023-12-03T00:32:02.393Z,6.85
2023-12-03T00:34:29.106Z,7.35
2023-12-03T00:36:56.125Z,6.45
2023-12-03T00:39:22.722Z,7.03
2023-12-03T00:41:49.282Z,7.55
2023-12-03T00:44:16.169Z,6.55
2023-12-03T00:46:43.964Z,6.85
2023-12-03T00:49:11.715Z,7.10
2023-12-03T00:51:38.667Z,7.25
2023-12-03T00:54:05.461Z,6.65
2023-12-03T00:56:32.536Z,7.72
2023-12-03T00:58:59.055Z,7.30
2023-12-03T01:01:27.994Z,7.35
2023-12-03T01:03:54.572Z,6.70
2023-12-03T01:06:21.085Z,7.28
2023-12-03T01:08:48.005Z,7.00
2023-12-03T01:11:15.019Z,7.57
2023-12-03T01:13:43.049Z,7.45
2023-12-03T01:16:18.221Z,6.95
2023-12-03T01:18:45.784Z,6.75
2023-12-03T01:21:12.689Z,6.55
2023-12-03T01:23:39.517Z,7.07
2023-12-03T01:26:06.942Z,6.38
2023-12-03T01:28:33.660Z,7.10
2023-12-03T01:31:07.497Z,6.45
2023-12-03T01:33:34.885Z,6.93
2023-12-03T01:36:02.498Z,6.07
2023-12-03T01:38:29.631Z,6.55
2023-12-03T01:40:56.514Z,6.50
2023-12-03T01:43:23.740Z,6.70
2023-12-03T01:45:50.391Z,7.18
2023-12-03T01:48:17.698Z,6.68
2023-12-03T01:50:47.316Z,6.45
2023-12-03T01:53:17.210Z,6.70
2023-12-03T01:55:44.790Z,6.60
2023-12-03T01:58:11.258Z,6.60
2023-12-03T02:00:39.620Z,7.25
2023-12-03T02:03:06.696Z,6.80
2023-12-03T02:05:33.494Z,7.40
2023-12-03T02:08:02.003Z,6.45
2023-12-03T02:10:28.812Z,7.18
2023-12-03T02:12:59.202Z,6.32
2023-12-03T02:15:25.898Z,5.25
2023-12-03T02:17:53.161Z,6.55
2023-12-03T02:20:19.958Z,6.50
2023-12-03T02:23:03.103Z,6.65
2023-12-03T02:25:29.875Z,7.13
2023-12-03T02:27:57.509Z,6.50
2023-12-03T02:30:24.214Z,6.88
2023-12-03T02:32:51.217Z,7.07
2023-12-03T02:35:18.236Z,5.75
2023-12-03T02:37:45.283Z,6.20
2023-12-03T02:40:12.190Z,5.70
2023-12-03T02:42:39.094Z,4.95
2023-12-03T02:45:08.981Z,5.47
2023-12-03T02:47:36.210Z,5.95
2023-12-03T02:50:04.380Z,5.72
2023-12-03T02:52:31.533Z,5.43
2023-12-03T02:54:58.163Z,5.25
2023-12-03T02:57:25.147Z,4.97
2023-12-03T02:59:51.976Z,5.32
2023-12-03T03:02:18.689Z,5.13
2023-12-03T03:04:45.365Z,6.55
2023-12-03T03:07:13.217Z,6.65
2023-12-03T03:09:40.051Z,5.70
2023-12-03T03:12:06.979Z,5.60
2023-12-03T03:17:00.962Z,5.88
2023-12-03T03:19:28.751Z,5.90
2023-12-03T03:21:55.515Z,5.00
2023-12-03T03:24:22.293Z,5.22
2023-12-03T03:26:49.180Z,5.22
2023-12-03T03:29:16.304Z,5.93
2023-12-03T03:31:43.381Z,6.00
2023-12-03T03:34:10.096Z,6.10
2023-12-03T03:36:37.537Z,5.65
2023-12-03T03:39:04.422Z,5.93
2023-12-03T03:41:31.123Z,5.22
2023-12-03T03:43:57.720Z,5.97
2023-12-03T03:46:24.285Z,6.55
2023-12-03T03:48:51.420Z,5.75
2023-12-03T03:51:18.043Z,6.00
2023-12-03T03:53:44.601Z,6.57
2023-12-03T03:56:11.808Z,6.10
2023-12-03T03:58:39.327Z,5.88
2023-12-03T04:01:08.027Z,5.45
2023-12-03T04:03:34.688Z,5.38
2023-12-03T04:06:03.635Z,5.85
2023-12-03T04:08:30.578Z,5.85
2023-12-03T04:10:57.554Z,6.43
2023-12-03T04:13:25.270Z,6.10
2023-12-03T04:15:52.523Z,6.35
2023-12-03T04:20:46.417Z,5.47
2023-12-03T04:23:13.157Z,6.25
2023-12-03T04:25:39.826Z,5.55
2023-12-03T04:28:07.024Z,6.40
2023-12-03T04:33:01.063Z,5.40
2023-12-03T04:35:27.771Z,6.60
2023-12-03T04:37:54.648Z,6.30
2023-12-03T04:40:21.246Z,6.35
2023-12-03T04:42:49.041Z,7.70
2023-12-03T04:45:16.410Z,5.82
2023-12-03T04:47:43.387Z,6.15
2023-12-03T04:50:10.341Z,6.72
2023-12-03T04:52:37.031Z,6.47
2023-12-03T04:55:03.985Z,6.03
2023-12-03T04:57:30.882Z,6.82
2023-12-03T04:59:58.236Z,7.43
2023-12-03T05:02:24.750Z,6.70
2023-12-03T05:04:51.544Z,6.57
2023-12-03T05:07:18.227Z,6.18
2023-12-03T05:09:44.869Z,6.50
2023-12-03T05:12:11.780Z,6.82
2023-12-03T05:14:38.922Z,6.32
2023-12-03T05:17:05.533Z,7.38
2023-12-03T05:19:32.590Z,6.97
2023-12-03T05:21:59.223Z,7.40
2023-12-03T05:24:26.064Z,6.65
2023-12-03T05:26:53.158Z,6.05
2023-12-03T05:29:23.010Z,6.53
2023-12-03T05:31:49.631Z,6.20
2023-12-03T05:34:16.682Z,6.10
2023-12-03T05:36:44.706Z,5.50
2023-12-03T05:39:11.273Z,6.75
2023-12-03T05:41:41.742Z,6.15
2023-12-03T05:44:08.286Z,5.85
2023-12-03T05:46:42.723Z,6.60
2023-12-03T05:49:10.521Z,6.80
2023-12-03T05:51:37.599Z,6.57
2023-12-03T05:54:04.518Z,6.60
2023-12-03T05:56:31.488Z,7.95
2023-12-03T05:58:58.944Z,7.05
2023-12-03T06:01:25.959Z,8.27
2023-12-03T06:03:53.639Z,8.32
2023-12-03T06:06:20.853Z,7.53
2023-12-03T06:08:49.393Z,7.00
2023-12-03T06:11:16.316Z,8.15
2023-12-03T06:13:43.401Z,7.13
2023-12-03T06:16:10.982Z,7.13
2023-12-03T06:18:38.056Z,6.85
2023-12-03T06:21:04.941Z,7.88
2023-12-03T06:23:31.911Z,7.70
2023-12-03T06:26:00.649Z,7.20
2023-12-03T06:28:27.530Z,7.68
2023-12-03T06:30:54.204Z,19.77
2023-12-03T06:33:23.698Z,18.48
2023-12-03T06:35:51.385Z,10.95
2023-12-03T06:38:18.306Z,8.80
2023-12-03T06:40:45.510Z,11.00
2023-12-03T06:43:12.315Z,8.25
2023-12-03T06:45:39.013Z,8.07
2023-12-03T06:50:34.762Z,7.43
2023-12-03T06:53:02.448Z,8.30
2023-12-03T06:55:29.644Z,7.68
2023-12-03T06:57:56.843Z,8.10
2023-12-03T07:00:26.999Z,7.22
2023-12-03T07:02:54.509Z,7.45
2023-12-03T07:05:21.213Z,7.13
2023-12-03T07:07:52.338Z,8.60
2023-12-03T07:10:19.492Z,8.30
2023-12-03T07:12:46.713Z,7.97
2023-12-03T07:15:13.488Z,6.85
2023-12-03T07:17:41.519Z,7.78
2023-12-03T07:20:09.149Z,6.85
2023-12-03T07:22:36.323Z,6.80
2023-12-03T07:25:05.933Z,7.60
2023-12-03T07:27:33.808Z,7.20
2023-12-03T07:30:00.440Z,9.23
2023-12-03T07:32:27.663Z,9.48
2023-12-03T07:34:54.928Z,7.00
2023-12-03T07:37:22.133Z,7.30
2023-12-03T07:39:49.344Z,7.00
2023-12-03T07:42:16.321Z,7.35
2023-12-03T07:44:43.700Z,7.45
2023-12-03T07:47:11.457Z,9.13
2023-12-03T07:49:38.062Z,8.43
2023-12-03T07:52:04.987Z,7.78
2023-12-03T07:54:32.953Z,6.82
2023-12-03T07:56:59.602Z,7.30
2023-12-03T07:59:26.551Z,7.03
2023-12-03T08:01:54.938Z,7.82
2023-12-03T08:04:21.929Z,7.88
2023-12-03T08:06:48.873Z,6.38
2023-12-03T08:09:16.604Z,7.00
2023-12-03T08:11:43.598Z,6.90
2023-12-03T08:14:10.185Z,6.20
2023-12-03T08:16:37.017Z,6.78
2023-12-03T08:19:03.993Z,6.70
2023-12-03T08:21:32.986Z,7.50
2023-12-03T08:23:59.706Z,6.38
2023-12-03T08:26:28.057Z,6.22
2023-12-03T08:28:54.889Z,6.63
2023-12-03T08:31:23.753Z,5.93
2023-12-03T08:33:51.056Z,7.07
2023-12-03T08:38:47.196Z,4.95
2023-12-03T08:41:13.800Z,6.43
2023-12-03T08:43:41.028Z,6.32
2023-12-03T08:46:08.937Z,8.82
2023-12-03T08:48:36.202Z,8.65
2023-12-03T08:51:03.023Z,9.05
2023-12-03T08:53:29.552Z,6.82
2023-12-03T08:55:59.819Z,5.88
2023-12-03T08:58:27.429Z,6.03
2023-12-03T09:00:54.253Z,5.95
2023-12-03T09:03:21.031Z,5.20
2023-12-03T09:05:47.760Z,6.13
2023-12-03T09:10:41.752Z,4.53
2023-12-03T09:13:08.355Z,4.95
2023-12-03T09:15:34.939Z,4.97
2023-12-03T09:18:01.744Z,5.53
2023-12-03T09:20:28.248Z,5.15
2023-12-03T09:22:55.453Z,4.82
2023-12-03T09:27:49.858Z,4.85
2023-12-03T09:30:16.594Z,4.85
2023-12-03T09:32:43.735Z,5.03
2023-12-03T09:35:10.331Z,4.88
2023-12-03T09:37:37.796Z,4.53
2023-12-03T09:40:05.078Z,3.97
2023-12-03T09:42:36.921Z,4.95
2023-12-03T09:45:07.155Z,5.60
2023-12-03T09:47:38.483Z,4.60
2023-12-03T09:50:06.018Z,4.47
2023-12-03T09:52:37.608Z,5.43
2023-12-03T09:55:05.843Z,4.90
2023-12-03T09:57:34.616Z,6.30
2023-12-03T10:00:06.838Z,4.68
2023-12-03T10:02:37.858Z,4.85
2023-12-03T10:05:05.077Z,5.28
2023-12-03T10:07:32.439Z,5.70
2023-12-03T10:10:01.003Z,5.05
2023-12-03T10:12:39.993Z,5.65
2023-12-03T10:15:09.532Z,5.30
2023-12-03T10:17:39.226Z,7.22
2023-12-03T10:20:30.099Z,5.88
2023-12-03T10:22:59.563Z,6.63
2023-12-03T10:25:27.545Z,5.85
2023-12-03T10:27:56.131Z,9.88
2023-12-03T10:30:23.323Z,6.15
2023-12-03T10:32:50.990Z,5.22
2023-12-03T10:37:48.893Z,6.00
2023-12-03T10:40:16.186Z,5.80
2023-12-03T10:42:45.092Z,6.13
2023-12-03T10:45:13.897Z,6.10
2023-12-03T10:47:42.516Z,5.38
2023-12-03T10:50:11.680Z,5.85
2023-12-03T10:52:40.582Z,6.25
2023-12-03T10:55:08.426Z,6.55
2023-12-03T10:57:46.428Z,5.78
2023-12-03T11:00:19.045Z,5.38
2023-12-03T11:02:49.555Z,5.18
2023-12-03T11:05:27.059Z,4.97
2023-12-03T11:07:54.545Z,5.75
2023-12-03T11:10:21.383Z,5.72
2023-12-03T11:12:48.821Z,4.97
2023-12-03T11:15:16.209Z,4.70
2023-12-03T11:17:45.581Z,6.13
2023-12-03T11:20:18.502Z,5.03
2023-12-03T11:23:16.312Z,5.75
2023-12-03T11:26:15.527Z,4.35
2023-12-03T11:28:57.331Z,5.13
2023-12-03T11:31:26.846Z,6.25
2023-12-03T11:34:01.678Z,7.38
2023-12-03T11:36:50.595Z,6.60
2023-12-03T11:39:20.782Z,6.10
2023-12-03T11:42:02.609Z,5.15
2023-12-03T11:44:29.316Z,6.07
2023-12-03T11:47:07.552Z,5.07
2023-12-03T11:49:36.776Z,4.75
2023-12-03T11:52:04.584Z,5.70
2023-12-03T11:54:59.724Z,5.28
2023-12-03T11:57:26.301Z,5.32
2023-12-03T11:59:53.424Z,5.28
2023-12-03T12:02:20.145Z,5.45
2023-12-03T12:04:46.842Z,5.53
2023-12-03T12:07:18.220Z,5.57
2023-12-03T12:09:51.442Z,5.70
2023-12-03T12:12:18.817Z,5.18
2023-12-03T12:14:46.409Z,5.20
2023-12-03T12:17:14.057Z,5.85
2023-12-03T12:19:50.914Z,4.93
2023-12-03T12:22:18.316Z,6.00
2023-12-03T12:24:46.200Z,7.20
2023-12-03T12:27:14.267Z,6.07
2023-12-03T12:29:41.823Z,6.50
2023-12-03T12:32:08.636Z,5.78
2023-12-03T12:34:35.703Z,6.57
2023-12-03T12:37:07.012Z,5.97
2023-12-03T12:39:34.994Z,5.70
2023-12-03T12:42:01.823Z,6.10
2023-12-03T12:44:46.646Z,6.47
2023-12-03T12:47:18.031Z,5.47
2023-12-03T12:49:56.370Z,5.95
2023-12-03T12:52:25.517Z,5.35
2023-12-03T12:54:55.237Z,6.25
2023-12-03T12:57:23.044Z,5.85
2023-12-03T13:02:20.541Z,6.50
2023-12-03T13:04:48.065Z,6.25
2023-12-03T13:07:15.235Z,5.65
2023-12-03T13:09:42.299Z,6.00
2023-12-03T13:12:09.840Z,5.85
2023-12-03T13:14:37.336Z,6.50
2023-12-03T13:17:04.503Z,6.07
2023-12-03T13:19:31.346Z,6.00
2023-12-03T13:21:58.726Z,6.43
2023-12-03T13:24:27.471Z,5.80
2023-12-03T13:26:54.658Z,6.18
2023-12-03T13:29:21.709Z,6.30
2023-12-03T13:31:48.324Z,6.47
2023-12-03T13:34:15.040Z,5.75
2023-12-03T13:36:41.804Z,6.25
2023-12-03T13:39:09.162Z,6.70
2023-12-03T13:41:35.816Z,6.28
2023-12-03T13:44:02.423Z,6.40
2023-12-03T13:46:30.265Z,7.07
2023-12-03T13:48:57.307Z,5.57
2023-12-03T13:51:24.028Z,6.13
2023-12-03T13:53:51.664Z,5.85
2023-12-03T13:56:19.271Z,5.90
2023-12-03T14:01:14.650Z,5.72
2023-12-03T14:03:43.812Z,6.20
2023-12-03T14:06:11.756Z,5.47
2023-12-03T14:08:38.805Z,6.32
2023-12-03T14:11:07.611Z,5.43
2023-12-03T14:13:35.279Z,5.65
2023-12-03T14:16:02.308Z,5.88
2023-12-03T14:18:29.189Z,4.95
2023-12-03T14:20:56.701Z,6.57
2023-12-03T14:23:23.188Z,6.20
2023-12-03T14:25:49.920Z,5.97
2023-12-03T14:28:17.168Z,5.50
2023-12-03T14:30:45.691Z,5.72
2023-12-03T14:33:13.114Z,7.10
2023-12-03T14:38:06.929Z,5.88
2023-12-03T14:40:34.544Z,6.00
2023-12-03T14:43:02.301Z,6.13
2023-12-03T14:47:56.822Z,6.00
2023-12-03T14:52:50.360Z,5.28
2023-12-03T14:55:16.893Z,5.75
2023-12-03T14:57:44.236Z,6.68
2023-12-03T15:00:12.357Z,5.63
2023-12-03T15:02:40.064Z,6.53
2023-12-03T15:05:08.067Z,5.80
2023-12-03T15:07:36.631Z,7.15
2023-12-03T15:10:05.106Z,6.30
2023-12-03T15:12:33.922Z,6.97
2023-12-03T15:15:02.401Z,5.97
2023-12-03T15:17:30.922Z,6.05
2023-12-03T15:19:57.699Z,8.10
2023-12-03T15:22:24.637Z,6.88
2023-12-03T15:24:51.544Z,7.93
2023-12-03T15:27:18.271Z,13.32
2023-12-03T15:29:45.013Z,5.72
2023-12-03T15:32:11.545Z,7.97
2023-12-03T15:34:38.308Z,7.80
2023-12-03T15:37:05.250Z,7.18
2023-12-03T15:39:31.918Z,9.13
2023-12-03T15:41:59.529Z,6.53
2023-12-03T15:44:28.511Z,6.82
2023-12-03T15:46:56.657Z,8.45
2023-12-03T15:49:23.528Z,7.38
2023-12-03T15:51:50.391Z,6.18
2023-12-03T15:54:18.569Z,10.98
2023-12-03T15:56:45.555Z,7.82
2023-12-03T15:59:13.384Z,6.97
2023-12-03T16:01:40.187Z,7.68
2023-12-03T16:04:07.078Z,11.32
2023-12-03T16:06:34.386Z,11.38
2023-12-03T16:09:01.490Z,12.73
2023-12-03T16:11:28.483Z,7.32
2023-12-03T16:13:55.185Z,13.57
2023-12-03T16:16:22.057Z,14.30
2023-12-03T16:18:48.779Z,7.70
2023-12-03T16:21:15.892Z,12.27
2023-12-03T16:26:09.279Z,10.77
2023-12-03T16:28:35.885Z,9.63
2023-12-03T16:31:02.863Z,6.38
2023-12-03T16:33:30.734Z,9.85
2023-12-03T16:35:57.728Z,10.93
2023-12-03T16:38:25.600Z,12.77
2023-12-03T16:40:52.154Z,9.93
2023-12-03T16:43:18.777Z,8.85
2023-12-03T16:45:45.279Z,10.88
2023-12-03T16:48:12.543Z,8.77
2023-12-03T16:50:39.574Z,6.80
2023-12-03T16:53:06.318Z,9.43
2023-12-03T16:55:33.392Z,8.13
2023-12-03T16:58:00.466Z,6.60
2023-12-03T17:00:28.068Z,6.45
2023-12-03T17:02:54.910Z,8.38
2023-12-03T17:05:22.044Z,7.50
2023-12-03T17:07:49.034Z,6.88
2023-12-03T17:10:15.744Z,7.60
2023-12-03T17:12:47.653Z,7.10
2023-12-03T17:15:21.804Z,6.97
2023-12-03T17:17:48.595Z,6.45
2023-12-03T17:20:15.906Z,7.50
2023-12-03T17:22:42.769Z,9.52
2023-12-03T17:25:09.702Z,8.00
2023-12-03T17:27:36.300Z,6.45
2023-12-03T17:30:02.999Z,6.53
2023-12-03T17:32:30.286Z,6.25
2023-12-03T17:34:57.585Z,6.13
2023-12-03T17:39:51.414Z,6.70
2023-12-03T17:42:17.987Z,7.13
2023-12-03T17:44:45.086Z,8.98
2023-12-03T17:47:12.948Z,8.18
2023-12-03T17:49:40.209Z,7.78
2023-12-03T17:52:07.984Z,7.78
2023-12-03T17:54:36.182Z,9.25
2023-12-03T17:57:02.705Z,8.15
2023-12-03T17:59:29.565Z,8.38
2023-12-03T18:01:56.470Z,7.68
2023-12-03T18:04:23.549Z,7.38
2023-12-03T18:06:50.388Z,8.45
2023-12-03T18:09:16.930Z,7.82
2023-12-03T18:11:44.924Z,9.05
2023-12-03T18:14:12.009Z,8.75
2023-12-03T18:16:39.556Z,8.63
2023-12-03T18:19:06.432Z,7.63
2023-12-03T18:21:35.367Z,9.75
2023-12-03T18:24:02.624Z,8.57
2023-12-03T18:26:29.647Z,9.60
2023-12-03T18:28:57.317Z,9.10
2023-12-03T18:31:24.409Z,7.32
2023-12-03T18:33:51.449Z,11.15
2023-12-03T18:36:19.978Z,7.82
2023-12-03T18:38:47.555Z,5.90
2023-12-03T18:41:23.772Z,6.88
2023-12-03T18:43:50.588Z,6.90
2023-12-03T18:46:19.103Z,6.57
2023-12-03T18:48:46.660Z,6.95
2023-12-03T18:51:13.383Z,7.05
2023-12-03T18:53:40.085Z,7.22
2023-12-03T18:56:07.493Z,7.18
2023-12-03T18:58:34.932Z,6.22
2023-12-03T19:01:03.512Z,7.20
2023-12-03T19:03:30.299Z,6.85
2023-12-03T19:05:58.085Z,6.22
2023-12-03T19:11:01.120Z,6.03
2023-12-03T19:13:30.448Z,7.25
2023-12-03T19:15:57.336Z,7.15
2023-12-03T19:18:25.072Z,7.60
2023-12-03T19:20:55.437Z,7.78
2023-12-03T19:23:24.469Z,8.35
2023-12-03T19:25:51.993Z,7.95
2023-12-03T19:28:18.691Z,7.28
2023-12-03T19:30:45.453Z,8.23
2023-12-03T19:33:12.546Z,6.65
2023-12-03T19:35:39.335Z,6.97
2023-12-03T19:38:06.529Z,5.95
2023-12-03T19:40:33.936Z,6.90
2023-12-03T19:43:01.206Z,7.40
2023-12-03T19:45:27.873Z,6.75
2023-12-03T19:47:55.636Z,8.07
2023-12-03T19:50:22.298Z,7.18
2023-12-03T19:55:16.462Z,9.07
2023-12-03T20:00:10.834Z,7.72
2023-12-03T20:02:37.704Z,7.60
2023-12-03T20:05:04.773Z,7.82
2023-12-03T20:07:31.635Z,6.65
2023-12-03T20:09:59.472Z,6.40
2023-12-03T20:12:31.197Z,7.25
2023-12-03T20:14:59.106Z,6.60
2023-12-03T20:17:27.096Z,6.80
2023-12-03T20:19:53.785Z,7.03
2023-12-03T20:22:21.637Z,7.03
2023-12-03T20:24:48.161Z,6.57
2023-12-03T20:27:14.741Z,6.68
2023-12-03T20:29:41.617Z,6.72
2023-12-03T20:32:08.360Z,7.18
2023-12-03T20:34:35.155Z,6.85
2023-12-03T20:37:02.257Z,7.72
2023-12-03T20:41:55.679Z,8.45
2023-12-03T20:44:22.900Z,6.70
2023-12-03T20:46:49.420Z,9.02
2023-12-03T20:49:16.481Z,19.58
2023-12-03T20:51:43.338Z,11.70
2023-12-03T20:54:10.437Z,8.73
2023-12-03T20:56:37.201Z,7.90
2023-12-03T20:59:04.738Z,8.77
2023-12-03T21:03:58.705Z,7.30
2023-12-03T21:06:26.386Z,6.30
2023-12-03T21:08:55.238Z,6.43
2023-12-03T21:11:21.869Z,6.78
2023-12-03T21:13:48.667Z,6.40
2023-12-03T21:16:15.859Z,6.68
2023-12-03T21:18:45.364Z,6.40
2023-12-03T21:21:12.082Z,6.70
2023-12-03T21:23:39.718Z,5.72
2023-12-03T21:26:06.479Z,5.45
2023-12-03T21:28:32.941Z,6.40
2023-12-03T21:30:59.603Z,6.32
2023-12-03T21:33:26.737Z,6.03
2023-12-03T21:35:56.750Z,5.82
2023-12-03T21:38:23.706Z,6.00
2023-12-03T21:40:50.272Z,6.10
2023-12-03T21:43:16.892Z,6.55
2023-12-03T21:45:44.272Z,6.25
2023-12-03T21:48:12.036Z,6.85
2023-12-03T21:50:39.852Z,6.57
2023-12-03T21:53:06.666Z,6.13
2023-12-03T21:55:33.453Z,6.40
2023-12-03T21:58:00.874Z,5.90
2023-12-03T22:00:27.634Z,5.60
2023-12-03T22:02:54.688Z,7.32
2023-12-03T22:05:21.469Z,6.47
2023-12-03T22:07:49.834Z,7.00
2023-12-03T22:10:16.843Z,6.93
2023-12-03T22:15:11.752Z,6.03
2023-12-03T22:17:39.042Z,6.75
2023-12-03T22:20:07.021Z,6.38
2023-12-03T22:22:34.165Z,6.13
2023-12-03T22:27:28.714Z,4.63
2023-12-03T22:30:00.561Z,5.43
2023-12-03T22:32:34.133Z,5.82
2023-12-03T22:35:00.794Z,5.38
2023-12-03T22:37:27.341Z,5.90
2023-12-03T22:39:54.081Z,5.00
2023-12-03T22:42:20.673Z,5.57
2023-12-03T22:44:47.497Z,5.88
2023-12-03T22:47:14.459Z,5.43
2023-12-03T22:49:43.294Z,6.07
2023-12-03T22:52:10.147Z,5.82
2023-12-03T22:57:03.940Z,5.45
2023-12-03T22:59:30.923Z,5.50
2023-12-03T23:01:57.425Z,5.88
2023-12-03T23:04:24.046Z,5.53
2023-12-03T23:06:50.916Z,5.47
2023-12-03T23:09:17.975Z,6.00
2023-12-03T23:11:44.658Z,5.13
2023-12-03T23:14:12.025Z,5.35
2023-12-03T23:16:42.513Z,5.60
2023-12-03T23:19:10.918Z,6.03
2023-12-03T23:21:39.105Z,5.32
2023-12-03T23:24:08.316Z,5.78
2023-12-03T23:26:40.301Z,5.57
2023-12-03T23:29:08.230Z,4.95
2023-12-03T23:31:36.244Z,5.63
2023-12-03T23:36:31.268Z,4.63
2023-12-03T23:38:58.733Z,5.05
2023-12-03T23:41:25.374Z,5.20
2023-12-03T23:43:52.663Z,5.28
2023-12-03T23:46:19.353Z,5.35
2023-12-03T23:48:45.859Z,5.10
2023-12-03T23:51:17.562Z,5.30
2023-12-03T23:53:44.758Z,4.97
2023-12-03T23:56:20.525Z,5.50
2023-12-03T23:58:47.100Z,4.80
